sensor_id;sensor_type;location;lat;lon;timestamp;temperature;humidity
5901;DHT22;2976;49.764;9.796;2023-07-31T00:00:14;16.70;99.90
5901;DHT22;2976;49.764;9.796;2023-07-31T00:02:41;16.70;99.90
5901;DHT22;2976;49.764;9.796;2023-07-31T00:05:08;16.70;99.90
5901;DHT22;2976;49.764;9.796;2023-07-31T00:07:34;16.60;99.90
5901;DHT22;2976;49.764;9.796;2023-07-31T00:09:59;16.60;99.90
5901;DHT22;2976;49.764;9.796;2023-07-31T00:12:25;16.50;99.90
5901;DHT22;2976;49.764;9.796;2023-07-31T00:14:51;16.50;99.90
5901;DHT22;2976;49.764;9.796;2023-07-31T00:17:17;16.40;99.90
5901;DHT22;2976;49.764;9.796;2023-07-31T00:19:43;16.40;99.90
5901;DHT22;2976;49.764;9.796;2023-07-31T00:22:08;16.40;99.90
5901;DHT22;2976;49.764;9.796;2023-07-31T00:24:34;16.40;99.90
5901;DHT22;2976;49.764;9.796;2023-07-31T00:26:59;16.40;99.90
5901;DHT22;2976;49.764;9.796;2023-07-31T00:29:25;16.40;99.90
5901;DHT22;2976;49.764;9.796;2023-07-31T00:31:51;16.30;99.90
5901;DHT22;2976;49.764;9.796;2023-07-31T00:34:16;16.30;99.90
5901;DHT22;2976;49.764;9.796;2023-07-31T00:36:42;16.20;99.90
5901;DHT22;2976;49.764;9.796;2023-07-31T00:39:07;16.10;99.90
5901;DHT22;2976;49.764;9.796;2023-07-31T00:41:33;16.10;99.90
5901;DHT22;2976;49.764;9.796;2023-07-31T00:43:58;16.10;99.90
5901;DHT22;2976;49.764;9.796;2023-07-31T00:46:24;16.20;99.90
5901;DHT22;2976;49.764;9.796;2023-07-31T00:48:49;16.10;99.90
5901;DHT22;2976;49.764;9.796;2023-07-31T00:51:15;16.20;99.90
5901;DHT22;2976;49.764;9.796;2023-07-31T00:53:41;16.20;99.90
5901;DHT22;2976;49.764;9.796;2023-07-31T00:56:08;16.10;99.90
5901;DHT22;2976;49.764;9.796;2023-07-31T00:58:33;16.10;99.90
5901;DHT22;2976;49.764;9.796;2023-07-31T01:00:59;16.10;99.90
5901;DHT22;2976;49.764;9.796;2023-07-31T01:03:25;16.10;99.90
5901;DHT22;2976;49.764;9.796;2023-07-31T01:09:03;16.00;99.90
5901;DHT22;2976;49.764;9.796;2023-07-31T01:11:31;16.00;99.90
5901;DHT22;2976;49.764;9.796;2023-07-31T01:13:58;16.00;99.90
5901;DHT22;2976;49.764;9.796;2023-07-31T01:16:26;16.00;99.90
5901;DHT22;2976;49.764;9.796;2023-07-31T01:18:52;16.00;99.90
5901;DHT22;2976;49.764;9.796;2023-07-31T01:27:25;15.90;99.90
5901;DHT22;2976;49.764;9.796;2023-07-31T01:30:03;16.00;99.90
5901;DHT22;2976;49.764;9.796;2023-07-31T01:32:38;16.00;99.90
5901;DHT22;2976;49.764;9.796;2023-07-31T01:35:05;16.00;99.90
5901;DHT22;2976;49.764;9.796;2023-07-31T01:37:31;16.00;99.90
5901;DHT22;2976;49.764;9.796;2023-07-31T01:39:56;16.00;99.90
5901;DHT22;2976;49.764;9.796;2023-07-31T01:42:22;16.00;99.90
5901;DHT22;2976;49.764;9.796;2023-07-31T01:44:47;16.00;99.90
5901;DHT22;2976;49.764;9.796;2023-07-31T01:47:13;16.00;99.90
5901;DHT22;2976;49.764;9.796;2023-07-31T01:49:38;16.00;99.90
5901;DHT22;2976;49.764;9.796;2023-07-31T01:52:04;16.00;99.90
5901;DHT22;2976;49.764;9.796;2023-07-31T01:54:30;16.00;99.90
5901;DHT22;2976;49.764;9.796;2023-07-31T01:56:55;15.90;99.90
5901;DHT22;2976;49.764;9.796;2023-07-31T01:59:21;16.00;99.90
5901;DHT22;2976;49.764;9.796;2023-07-31T02:01:46;15.90;99.90
5901;DHT22;2976;49.764;9.796;2023-07-31T02:04:12;15.90;99.90
5901;DHT22;2976;49.764;9.796;2023-07-31T02:06:38;15.90;99.90
5901;DHT22;2976;49.764;9.796;2023-07-31T02:09:04;15.90;99.90
5901;DHT22;2976;49.764;9.796;2023-07-31T02:11:29;15.90;99.90
5901;DHT22;2976;49.764;9.796;2023-07-31T02:13:55;15.90;99.90
5901;DHT22;2976;49.764;9.796;2023-07-31T02:16:20;15.90;99.90
5901;DHT22;2976;49.764;9.796;2023-07-31T02:18:46;15.80;99.90
5901;DHT22;2976;49.764;9.796;2023-07-31T02:21:12;15.80;99.90
5901;DHT22;2976;49.764;9.796;2023-07-31T02:23:37;15.80;99.90
5901;DHT22;2976;49.764;9.796;2023-07-31T02:26:03;15.80;99.90
5901;DHT22;2976;49.764;9.796;2023-07-31T02:28:29;15.70;99.90
5901;DHT22;2976;49.764;9.796;2023-07-31T02:30:54;15.60;99.90
5901;DHT22;2976;49.764;9.796;2023-07-31T02:33:20;15.60;99.90
5901;DHT22;2976;49.764;9.796;2023-07-31T02:35:46;15.60;99.90
5901;DHT22;2976;49.764;9.796;2023-07-31T02:38:11;15.50;99.90
5901;DHT22;2976;49.764;9.796;2023-07-31T02:40:37;15.50;99.90
5901;DHT22;2976;49.764;9.796;2023-07-31T02:43:02;15.50;99.90
5901;DHT22;2976;49.764;9.796;2023-07-31T02:45:28;15.40;99.90
5901;DHT22;2976;49.764;9.796;2023-07-31T02:47:54;15.50;99.90
5901;DHT22;2976;49.764;9.796;2023-07-31T02:50:19;15.50;99.90
5901;DHT22;2976;49.764;9.796;2023-07-31T02:52:45;15.50;99.90
5901;DHT22;2976;49.764;9.796;2023-07-31T02:55:10;15.50;99.90
5901;DHT22;2976;49.764;9.796;2023-07-31T02:57:36;15.50;99.90
5901;DHT22;2976;49.764;9.796;2023-07-31T03:00:02;15.50;99.90
5901;DHT22;2976;49.764;9.796;2023-07-31T03:02:31;15.50;99.90
5901;DHT22;2976;49.764;9.796;2023-07-31T03:04:56;15.50;99.90
5901;DHT22;2976;49.764;9.796;2023-07-31T03:07:22;15.50;99.90
5901;DHT22;2976;49.764;9.796;2023-07-31T03:09:47;15.50;99.90
5901;DHT22;2976;49.764;9.796;2023-07-31T03:12:13;15.50;99.90
5901;DHT22;2976;49.764;9.796;2023-07-31T03:14:38;15.50;99.90
5901;DHT22;2976;49.764;9.796;2023-07-31T03:17:04;15.40;99.90
5901;DHT22;2976;49.764;9.796;2023-07-31T03:19:32;15.50;99.90
5901;DHT22;2976;49.764;9.796;2023-07-31T03:21:59;15.50;99.90
5901;DHT22;2976;49.764;9.796;2023-07-31T03:24:25;15.60;99.90
5901;DHT22;2976;49.764;9.796;2023-07-31T03:26:50;15.50;99.90
5901;DHT22;2976;49.764;9.796;2023-07-31T03:29:16;15.50;99.90
5901;DHT22;2976;49.764;9.796;2023-07-31T03:31:42;15.60;99.90
5901;DHT22;2976;49.764;9.796;2023-07-31T03:34:07;15.60;99.90
5901;DHT22;2976;49.764;9.796;2023-07-31T03:36:33;15.60;99.90
5901;DHT22;2976;49.764;9.796;2023-07-31T03:38:58;15.60;99.90
5901;DHT22;2976;49.764;9.796;2023-07-31T03:41:24;15.60;99.90
5901;DHT22;2976;49.764;9.796;2023-07-31T03:43:50;15.60;99.90
5901;DHT22;2976;49.764;9.796;2023-07-31T03:46:21;15.60;99.90
5901;DHT22;2976;49.764;9.796;2023-07-31T03:48:47;15.60;99.90
5901;DHT22;2976;49.764;9.796;2023-07-31T03:51:13;15.60;99.90
5901;DHT22;2976;49.764;9.796;2023-07-31T03:53:38;15.50;99.90
5901;DHT22;2976;49.764;9.796;2023-07-31T03:56:04;15.50;99.90
5901;DHT22;2976;49.764;9.796;2023-07-31T03:58:30;15.60;99.90
5901;DHT22;2976;49.764;9.796;2023-07-31T04:00:55;15.60;99.90
5901;DHT22;2976;49.764;9.796;2023-07-31T04:03:21;15.60;99.90
5901;DHT22;2976;49.764;9.796;2023-07-31T04:05:46;15.50;99.90
5901;DHT22;2976;49.764;9.796;2023-07-31T04:08:12;15.60;99.90
5901;DHT22;2976;49.764;9.796;2023-07-31T04:10:38;15.60;99.90
5901;DHT22;2976;49.764;9.796;2023-07-31T04:13:03;15.60;99.90
5901;DHT22;2976;49.764;9.796;2023-07-31T04:15:29;15.60;99.90
5901;DHT22;2976;49.764;9.796;2023-07-31T04:17:54;15.70;99.90
5901;DHT22;2976;49.764;9.796;2023-07-31T04:20:20;15.80;99.90
5901;DHT22;2976;49.764;9.796;2023-07-31T04:22:45;15.80;99.90
5901;DHT22;2976;49.764;9.796;2023-07-31T04:25:11;15.90;99.90
5901;DHT22;2976;49.764;9.796;2023-07-31T04:27:36;15.90;99.90
5901;DHT22;2976;49.764;9.796;2023-07-31T04:30:02;15.90;99.90
5901;DHT22;2976;49.764;9.796;2023-07-31T04:32:28;15.80;99.90
5901;DHT22;2976;49.764;9.796;2023-07-31T04:34:55;15.90;99.90
5901;DHT22;2976;49.764;9.796;2023-07-31T04:37:20;15.90;99.90
5901;DHT22;2976;49.764;9.796;2023-07-31T04:39:46;15.90;99.90
5901;DHT22;2976;49.764;9.796;2023-07-31T04:42:12;16.00;99.90
5901;DHT22;2976;49.764;9.796;2023-07-31T04:44:38;16.00;99.90
5901;DHT22;2976;49.764;9.796;2023-07-31T04:47:03;16.10;99.90
5901;DHT22;2976;49.764;9.796;2023-07-31T04:49:29;16.10;99.90
5901;DHT22;2976;49.764;9.796;2023-07-31T04:51:55;16.00;99.90
5901;DHT22;2976;49.764;9.796;2023-07-31T04:54:20;16.00;99.90
5901;DHT22;2976;49.764;9.796;2023-07-31T04:56:46;16.00;99.90
5901;DHT22;2976;49.764;9.796;2023-07-31T04:59:12;16.10;99.90
5901;DHT22;2976;49.764;9.796;2023-07-31T05:01:38;16.10;99.90
5901;DHT22;2976;49.764;9.796;2023-07-31T05:04:03;16.00;99.90
5901;DHT22;2976;49.764;9.796;2023-07-31T05:06:29;15.90;99.90
5901;DHT22;2976;49.764;9.796;2023-07-31T05:08:54;16.00;99.90
5901;DHT22;2976;49.764;9.796;2023-07-31T05:11:20;16.00;99.90
5901;DHT22;2976;49.764;9.796;2023-07-31T05:13:46;16.10;99.90
5901;DHT22;2976;49.764;9.796;2023-07-31T05:16:11;16.10;99.90
5901;DHT22;2976;49.764;9.796;2023-07-31T05:18:37;16.20;99.90
5901;DHT22;2976;49.764;9.796;2023-07-31T05:21:03;16.20;99.90
5901;DHT22;2976;49.764;9.796;2023-07-31T05:23:28;16.20;99.90
5901;DHT22;2976;49.764;9.796;2023-07-31T05:25:54;16.30;99.90
5901;DHT22;2976;49.764;9.796;2023-07-31T05:28:21;16.30;99.90
5901;DHT22;2976;49.764;9.796;2023-07-31T05:30:47;16.30;99.90
5901;DHT22;2976;49.764;9.796;2023-07-31T05:33:12;16.40;99.90
5901;DHT22;2976;49.764;9.796;2023-07-31T05:35:38;16.50;99.90
5901;DHT22;2976;49.764;9.796;2023-07-31T05:38:03;16.60;99.90
5901;DHT22;2976;49.764;9.796;2023-07-31T05:40:32;16.80;99.90
5901;DHT22;2976;49.764;9.796;2023-07-31T05:42:58;17.00;99.90
5901;DHT22;2976;49.764;9.796;2023-07-31T05:45:25;17.10;99.90
5901;DHT22;2976;49.764;9.796;2023-07-31T05:47:50;17.20;99.90
5901;DHT22;2976;49.764;9.796;2023-07-31T05:50:16;17.20;99.90
5901;DHT22;2976;49.764;9.796;2023-07-31T05:52:42;17.30;99.90
5901;DHT22;2976;49.764;9.796;2023-07-31T05:55:08;17.30;99.90
5901;DHT22;2976;49.764;9.796;2023-07-31T05:57:33;17.30;99.90
5901;DHT22;2976;49.764;9.796;2023-07-31T05:59:59;17.50;99.90
5901;DHT22;2976;49.764;9.796;2023-07-31T06:02:24;17.50;99.90
5901;DHT22;2976;49.764;9.796;2023-07-31T06:04:50;17.40;99.90
5901;DHT22;2976;49.764;9.796;2023-07-31T06:07:15;17.40;99.90
5901;DHT22;2976;49.764;9.796;2023-07-31T06:09:41;17.50;99.90
5901;DHT22;2976;49.764;9.796;2023-07-31T06:12:07;17.50;99.90
5901;DHT22;2976;49.764;9.796;2023-07-31T06:14:32;17.60;99.90
5901;DHT22;2976;49.764;9.796;2023-07-31T06:16:58;17.80;99.90
5901;DHT22;2976;49.764;9.796;2023-07-31T06:19:23;18.10;99.90
5901;DHT22;2976;49.764;9.796;2023-07-31T06:21:49;18.30;99.90
5901;DHT22;2976;49.764;9.796;2023-07-31T06:24:15;18.50;99.90
5901;DHT22;2976;49.764;9.796;2023-07-31T06:26:44;18.80;99.90
5901;DHT22;2976;49.764;9.796;2023-07-31T06:29:10;18.70;99.90
5901;DHT22;2976;49.764;9.796;2023-07-31T06:31:35;18.60;99.90
5901;DHT22;2976;49.764;9.796;2023-07-31T06:34:01;18.50;99.90
5901;DHT22;2976;49.764;9.796;2023-07-31T06:36:26;18.70;99.90
5901;DHT22;2976;49.764;9.796;2023-07-31T06:38:52;18.90;99.90
5901;DHT22;2976;49.764;9.796;2023-07-31T06:41:17;19.10;99.90
5901;DHT22;2976;49.764;9.796;2023-07-31T06:43:43;19.10;99.90
5901;DHT22;2976;49.764;9.796;2023-07-31T06:46:09;19.10;99.90
5901;DHT22;2976;49.764;9.796;2023-07-31T06:48:35;18.80;99.90
5901;DHT22;2976;49.764;9.796;2023-07-31T06:51:02;18.60;99.90
5901;DHT22;2976;49.764;9.796;2023-07-31T06:53:28;18.80;99.90
5901;DHT22;2976;49.764;9.796;2023-07-31T06:55:54;18.70;99.90
5901;DHT22;2976;49.764;9.796;2023-07-31T06:58:20;18.70;99.90
5901;DHT22;2976;49.764;9.796;2023-07-31T07:00:45;18.60;99.90
5901;DHT22;2976;49.764;9.796;2023-07-31T07:03:11;18.50;99.90
5901;DHT22;2976;49.764;9.796;2023-07-31T07:05:37;18.50;99.90
5901;DHT22;2976;49.764;9.796;2023-07-31T07:08:02;18.60;99.90
5901;DHT22;2976;49.764;9.796;2023-07-31T07:10:28;18.70;99.90
5901;DHT22;2976;49.764;9.796;2023-07-31T07:12:54;18.90;99.90
5901;DHT22;2976;49.764;9.796;2023-07-31T07:15:20;18.70;99.90
5901;DHT22;2976;49.764;9.796;2023-07-31T07:17:46;18.80;99.90
5901;DHT22;2976;49.764;9.796;2023-07-31T07:20:12;19.00;99.90
5901;DHT22;2976;49.764;9.796;2023-07-31T07:22:38;19.10;99.90
5901;DHT22;2976;49.764;9.796;2023-07-31T07:25:04;19.00;99.90
5901;DHT22;2976;49.764;9.796;2023-07-31T07:27:30;19.00;99.90
5901;DHT22;2976;49.764;9.796;2023-07-31T07:29:56;19.00;99.90
5901;DHT22;2976;49.764;9.796;2023-07-31T07:32:21;19.00;99.90
5901;DHT22;2976;49.764;9.796;2023-07-31T07:34:48;19.20;99.90
5901;DHT22;2976;49.764;9.796;2023-07-31T07:37:14;19.20;99.90
5901;DHT22;2976;49.764;9.796;2023-07-31T07:39:39;19.20;99.90
5901;DHT22;2976;49.764;9.796;2023-07-31T07:42:05;19.40;99.90
5901;DHT22;2976;49.764;9.796;2023-07-31T07:44:31;19.50;99.90
5901;DHT22;2976;49.764;9.796;2023-07-31T07:46:57;19.90;99.90
5901;DHT22;2976;49.764;9.796;2023-07-31T07:49:22;20.50;99.90
5901;DHT22;2976;49.764;9.796;2023-07-31T07:51:48;21.30;98.70
5901;DHT22;2976;49.764;9.796;2023-07-31T07:54:15;21.50;96.00
5901;DHT22;2976;49.764;9.796;2023-07-31T07:56:42;21.30;96.20
5901;DHT22;2976;49.764;9.796;2023-07-31T07:59:07;20.90;96.90
5901;DHT22;2976;49.764;9.796;2023-07-31T08:01:33;20.60;98.50
5901;DHT22;2976;49.764;9.796;2023-07-31T08:03:59;20.40;98.40
5901;DHT22;2976;49.764;9.796;2023-07-31T08:06:24;20.00;99.10
5901;DHT22;2976;49.764;9.796;2023-07-31T08:08:50;19.90;99.60
5901;DHT22;2976;49.764;9.796;2023-07-31T08:11:15;19.50;99.90
5901;DHT22;2976;49.764;9.796;2023-07-31T08:13:41;19.50;99.90
5901;DHT22;2976;49.764;9.796;2023-07-31T08:16:07;19.60;99.90
5901;DHT22;2976;49.764;9.796;2023-07-31T08:18:32;19.50;99.90
5901;DHT22;2976;49.764;9.796;2023-07-31T08:20:58;19.50;99.90
5901;DHT22;2976;49.764;9.796;2023-07-31T08:23:24;19.40;99.90
5901;DHT22;2976;49.764;9.796;2023-07-31T08:25:49;19.40;99.90
5901;DHT22;2976;49.764;9.796;2023-07-31T08:28:16;19.50;99.90
5901;DHT22;2976;49.764;9.796;2023-07-31T08:30:42;20.00;99.90
5901;DHT22;2976;49.764;9.796;2023-07-31T08:33:07;20.40;99.90
5901;DHT22;2976;49.764;9.796;2023-07-31T08:35:33;20.50;99.60
5901;DHT22;2976;49.764;9.796;2023-07-31T08:37:59;20.70;98.80
5901;DHT22;2976;49.764;9.796;2023-07-31T08:40:25;20.40;98.90
5901;DHT22;2976;49.764;9.796;2023-07-31T08:42:54;20.50;99.80
5901;DHT22;2976;49.764;9.796;2023-07-31T08:45:22;20.80;98.50
5901;DHT22;2976;49.764;9.796;2023-07-31T08:47:51;20.90;99.00
5901;DHT22;2976;49.764;9.796;2023-07-31T08:50:19;21.00;98.30
5901;DHT22;2976;49.764;9.796;2023-07-31T08:52:46;21.50;98.10
5901;DHT22;2976;49.764;9.796;2023-07-31T08:55:12;21.80;96.70
5901;DHT22;2976;49.764;9.796;2023-07-31T08:57:38;21.70;96.30
5901;DHT22;2976;49.764;9.796;2023-07-31T09:00:05;21.80;96.70
5901;DHT22;2976;49.764;9.796;2023-07-31T09:05:01;21.40;96.40
5901;DHT22;2976;49.764;9.796;2023-07-31T09:07:29;21.50;97.70
5901;DHT22;2976;49.764;9.796;2023-07-31T09:09:55;21.80;97.10
5901;DHT22;2976;49.764;9.796;2023-07-31T09:12:21;21.80;96.80
5901;DHT22;2976;49.764;9.796;2023-07-31T09:14:47;21.90;96.10
5901;DHT22;2976;49.764;9.796;2023-07-31T09:17:12;21.90;96.60
5901;DHT22;2976;49.764;9.796;2023-07-31T09:19:38;21.80;95.40
5901;DHT22;2976;49.764;9.796;2023-07-31T09:22:07;21.50;96.40
5901;DHT22;2976;49.764;9.796;2023-07-31T09:24:34;21.60;96.30
5901;DHT22;2976;49.764;9.796;2023-07-31T09:27:01;21.60;96.40
5901;DHT22;2976;49.764;9.796;2023-07-31T09:29:28;21.60;95.50
5901;DHT22;2976;49.764;9.796;2023-07-31T09:31:55;21.60;96.10
5901;DHT22;2976;49.764;9.796;2023-07-31T09:34:36;21.70;95.30
5901;DHT22;2976;49.764;9.796;2023-07-31T09:37:04;21.90;95.40
5901;DHT22;2976;49.764;9.796;2023-07-31T09:39:30;21.80;94.90
5901;DHT22;2976;49.764;9.796;2023-07-31T09:41:56;22.00;95.40
5901;DHT22;2976;49.764;9.796;2023-07-31T09:44:37;21.90;94.90
5901;DHT22;2976;49.764;9.796;2023-07-31T09:47:04;21.70;95.40
5901;DHT22;2976;49.764;9.796;2023-07-31T09:49:30;21.70;94.80
5901;DHT22;2976;49.764;9.796;2023-07-31T09:51:56;21.70;95.10
5901;DHT22;2976;49.764;9.796;2023-07-31T09:54:21;21.40;95.40
5901;DHT22;2976;49.764;9.796;2023-07-31T09:56:48;21.00;95.80
5901;DHT22;2976;49.764;9.796;2023-07-31T09:59:16;20.90;96.70
5901;DHT22;2976;49.764;9.796;2023-07-31T10:01:45;20.90;96.20
5901;DHT22;2976;49.764;9.796;2023-07-31T10:04:12;20.90;96.90
5901;DHT22;2976;49.764;9.796;2023-07-31T10:06:38;21.00;96.30
5901;DHT22;2976;49.764;9.796;2023-07-31T10:09:12;21.10;96.70
5901;DHT22;2976;49.764;9.796;2023-07-31T10:11:43;21.10;97.00
5901;DHT22;2976;49.764;9.796;2023-07-31T10:14:11;21.10;96.30
5901;DHT22;2976;49.764;9.796;2023-07-31T10:16:38;21.10;96.60
5901;DHT22;2976;49.764;9.796;2023-07-31T10:19:05;20.90;96.60
5901;DHT22;2976;49.764;9.796;2023-07-31T10:21:32;20.90;97.10
5901;DHT22;2976;49.764;9.796;2023-07-31T10:24:03;20.90;96.70
5901;DHT22;2976;49.764;9.796;2023-07-31T10:26:31;20.90;97.00
5901;DHT22;2976;49.764;9.796;2023-07-31T10:28:58;20.80;97.10
5901;DHT22;2976;49.764;9.796;2023-07-31T10:31:24;20.80;97.20
5901;DHT22;2976;49.764;9.796;2023-07-31T10:33:51;20.80;97.10
5901;DHT22;2976;49.764;9.796;2023-07-31T10:36:18;20.90;96.90
5901;DHT22;2976;49.764;9.796;2023-07-31T10:38:45;21.00;97.20
5901;DHT22;2976;49.764;9.796;2023-07-31T10:41:11;21.10;96.90
5901;DHT22;2976;49.764;9.796;2023-07-31T10:43:37;21.20;96.90
5901;DHT22;2976;49.764;9.796;2023-07-31T10:46:07;21.30;96.10
5901;DHT22;2976;49.764;9.796;2023-07-31T10:48:34;21.70;95.20
5901;DHT22;2976;49.764;9.796;2023-07-31T10:51:07;21.70;95.50
5901;DHT22;2976;49.764;9.796;2023-07-31T10:53:34;21.80;95.40
5901;DHT22;2976;49.764;9.796;2023-07-31T10:56:04;22.10;94.70
5901;DHT22;2976;49.764;9.796;2023-07-31T10:58:30;22.40;94.50
5901;DHT22;2976;49.764;9.796;2023-07-31T11:00:59;22.50;93.50
5901;DHT22;2976;49.764;9.796;2023-07-31T11:03:26;22.70;93.40
5901;DHT22;2976;49.764;9.796;2023-07-31T11:08:28;23.00;91.80
5901;DHT22;2976;49.764;9.796;2023-07-31T11:13:41;22.60;91.50
5901;DHT22;2976;49.764;9.796;2023-07-31T11:16:08;22.60;92.10
5901;DHT22;2976;49.764;9.796;2023-07-31T11:18:35;22.60;91.60
5901;DHT22;2976;49.764;9.796;2023-07-31T11:21:00;22.00;91.20
5901;DHT22;2976;49.764;9.796;2023-07-31T11:23:26;21.80;91.60
5901;DHT22;2976;49.764;9.796;2023-07-31T11:25:51;21.60;91.40
5901;DHT22;2976;49.764;9.796;2023-07-31T11:28:18;21.70;91.50
5901;DHT22;2976;49.764;9.796;2023-07-31T11:30:45;21.80;91.90
5901;DHT22;2976;49.764;9.796;2023-07-31T11:33:12;22.00;91.70
5901;DHT22;2976;49.764;9.796;2023-07-31T11:35:45;21.90;91.40
5901;DHT22;2976;49.764;9.796;2023-07-31T11:38:12;21.80;91.30
5901;DHT22;2976;49.764;9.796;2023-07-31T11:40:44;21.80;92.10
5901;DHT22;2976;49.764;9.796;2023-07-31T11:43:10;21.70;92.00
5901;DHT22;2976;49.764;9.796;2023-07-31T11:45:41;21.80;92.30
5901;DHT22;2976;49.764;9.796;2023-07-31T11:48:07;22.00;91.70
5901;DHT22;2976;49.764;9.796;2023-07-31T11:50:33;22.20;92.30
5901;DHT22;2976;49.764;9.796;2023-07-31T11:53:04;22.60;91.80
5901;DHT22;2976;49.764;9.796;2023-07-31T11:55:33;22.90;91.10
5901;DHT22;2976;49.764;9.796;2023-07-31T11:57:59;23.00;92.00
5901;DHT22;2976;49.764;9.796;2023-07-31T12:00:26;23.30;90.70
5901;DHT22;2976;49.764;9.796;2023-07-31T12:02:53;23.30;90.20
5901;DHT22;2976;49.764;9.796;2023-07-31T12:05:18;23.10;89.70
5901;DHT22;2976;49.764;9.796;2023-07-31T12:07:51;22.80;91.10
5901;DHT22;2976;49.764;9.796;2023-07-31T12:10:28;22.80;90.80
5901;DHT22;2976;49.764;9.796;2023-07-31T12:13:07;22.90;90.90
5901;DHT22;2976;49.764;9.796;2023-07-31T12:18:07;22.80;91.20
5901;DHT22;2976;49.764;9.796;2023-07-31T12:20:33;22.80;90.70
5901;DHT22;2976;49.764;9.796;2023-07-31T12:22:59;22.80;90.10
5901;DHT22;2976;49.764;9.796;2023-07-31T12:25:32;22.80;90.70
5901;DHT22;2976;49.764;9.796;2023-07-31T12:28:03;23.00;90.70
5901;DHT22;2976;49.764;9.796;2023-07-31T12:30:33;23.20;91.00
5901;DHT22;2976;49.764;9.796;2023-07-31T12:33:13;23.50;89.90
5901;DHT22;2976;49.764;9.796;2023-07-31T12:35:44;23.50;89.20
5901;DHT22;2976;49.764;9.796;2023-07-31T12:38:10;23.50;89.70
5901;DHT22;2976;49.764;9.796;2023-07-31T12:40:39;23.40;88.70
5901;DHT22;2976;49.764;9.796;2023-07-31T12:43:06;23.20;89.20
5901;DHT22;2976;49.764;9.796;2023-07-31T12:45:32;23.00;89.50
5901;DHT22;2976;49.764;9.796;2023-07-31T12:47:59;22.70;89.80
5901;DHT22;2976;49.764;9.796;2023-07-31T12:50:24;22.50;90.50
5901;DHT22;2976;49.764;9.796;2023-07-31T12:52:51;22.40;92.10
5901;DHT22;2976;49.764;9.796;2023-07-31T12:55:16;22.30;93.00
5901;DHT22;2976;49.764;9.796;2023-07-31T12:57:43;22.20;95.20
5901;DHT22;2976;49.764;9.796;2023-07-31T13:00:09;21.80;96.80
5901;DHT22;2976;49.764;9.796;2023-07-31T13:02:35;21.50;95.10
5901;DHT22;2976;49.764;9.796;2023-07-31T13:05:01;21.40;97.50
5901;DHT22;2976;49.764;9.796;2023-07-31T13:07:26;21.60;98.60
5901;DHT22;2976;49.764;9.796;2023-07-31T13:09:52;21.80;99.00
5901;DHT22;2976;49.764;9.796;2023-07-31T13:12:18;22.40;94.80
5901;DHT22;2976;49.764;9.796;2023-07-31T13:14:43;22.80;94.00
5901;DHT22;2976;49.764;9.796;2023-07-31T13:17:09;23.30;93.00
5901;DHT22;2976;49.764;9.796;2023-07-31T13:19:34;23.20;91.40
5901;DHT22;2976;49.764;9.796;2023-07-31T13:22:00;23.30;91.40
5901;DHT22;2976;49.764;9.796;2023-07-31T13:24:25;23.10;91.70
5901;DHT22;2976;49.764;9.796;2023-07-31T13:26:51;22.90;91.80
5901;DHT22;2976;49.764;9.796;2023-07-31T13:29:17;23.10;91.20
5901;DHT22;2976;49.764;9.796;2023-07-31T13:31:42;23.00;91.40
5901;DHT22;2976;49.764;9.796;2023-07-31T13:34:08;22.90;90.70
5901;DHT22;2976;49.764;9.796;2023-07-31T13:36:33;22.90;91.80
5901;DHT22;2976;49.764;9.796;2023-07-31T13:38:59;23.00;91.60
5901;DHT22;2976;49.764;9.796;2023-07-31T13:41:26;22.70;91.00
5901;DHT22;2976;49.764;9.796;2023-07-31T13:43:51;22.70;91.30
5901;DHT22;2976;49.764;9.796;2023-07-31T13:46:17;22.60;90.70
5901;DHT22;2976;49.764;9.796;2023-07-31T13:48:42;22.40;91.50
5901;DHT22;2976;49.764;9.796;2023-07-31T13:51:08;22.50;91.40
5901;DHT22;2976;49.764;9.796;2023-07-31T13:53:33;22.50;91.50
5901;DHT22;2976;49.764;9.796;2023-07-31T13:56:00;22.60;91.20
5901;DHT22;2976;49.764;9.796;2023-07-31T13:58:26;22.60;91.60
5901;DHT22;2976;49.764;9.796;2023-07-31T14:00:51;22.50;91.90
5901;DHT22;2976;49.764;9.796;2023-07-31T14:03:17;22.40;91.90
5901;DHT22;2976;49.764;9.796;2023-07-31T14:05:43;22.50;92.30
5901;DHT22;2976;49.764;9.796;2023-07-31T14:08:08;22.60;91.60
5901;DHT22;2976;49.764;9.796;2023-07-31T14:10:34;22.70;92.10
5901;DHT22;2976;49.764;9.796;2023-07-31T14:12:59;22.90;91.20
5901;DHT22;2976;49.764;9.796;2023-07-31T14:15:25;22.70;91.30
5901;DHT22;2976;49.764;9.796;2023-07-31T14:17:50;22.60;91.90
5901;DHT22;2976;49.764;9.796;2023-07-31T14:20:16;22.30;91.90
5901;DHT22;2976;49.764;9.796;2023-07-31T14:22:41;22.10;92.70
5901;DHT22;2976;49.764;9.796;2023-07-31T14:25:07;22.20;93.00
5901;DHT22;2976;49.764;9.796;2023-07-31T14:27:35;22.50;92.90
5901;DHT22;2976;49.764;9.796;2023-07-31T14:30:01;22.80;92.30
5901;DHT22;2976;49.764;9.796;2023-07-31T14:32:27;22.80;91.90
5901;DHT22;2976;49.764;9.796;2023-07-31T14:34:53;22.50;92.00
5901;DHT22;2976;49.764;9.796;2023-07-31T14:37:19;22.40;92.50
5901;DHT22;2976;49.764;9.796;2023-07-31T14:39:45;22.50;92.70
5901;DHT22;2976;49.764;9.796;2023-07-31T14:42:11;22.60;92.60
5901;DHT22;2976;49.764;9.796;2023-07-31T14:44:36;22.60;92.60
5901;DHT22;2976;49.764;9.796;2023-07-31T14:47:02;22.60;92.10
5901;DHT22;2976;49.764;9.796;2023-07-31T14:49:27;22.30;92.80
5901;DHT22;2976;49.764;9.796;2023-07-31T14:51:54;22.20;92.60
5901;DHT22;2976;49.764;9.796;2023-07-31T14:54:19;22.20;92.90
5901;DHT22;2976;49.764;9.796;2023-07-31T14:56:45;22.00;93.50
5901;DHT22;2976;49.764;9.796;2023-07-31T14:59:10;21.90;93.40
5901;DHT22;2976;49.764;9.796;2023-07-31T15:01:37;21.90;93.90
5901;DHT22;2976;49.764;9.796;2023-07-31T15:04:03;21.80;93.40
5901;DHT22;2976;49.764;9.796;2023-07-31T15:06:28;22.00;94.00
5901;DHT22;2976;49.764;9.796;2023-07-31T15:08:54;22.10;93.90
5901;DHT22;2976;49.764;9.796;2023-07-31T15:11:19;22.10;93.80
5901;DHT22;2976;49.764;9.796;2023-07-31T15:13:45;22.20;94.00
5901;DHT22;2976;49.764;9.796;2023-07-31T15:16:11;22.30;93.50
5901;DHT22;2976;49.764;9.796;2023-07-31T15:18:36;22.30;93.80
5901;DHT22;2976;49.764;9.796;2023-07-31T15:21:02;22.30;93.50
5901;DHT22;2976;49.764;9.796;2023-07-31T15:23:27;22.30;93.80
5901;DHT22;2976;49.764;9.796;2023-07-31T15:25:53;22.40;93.70
5901;DHT22;2976;49.764;9.796;2023-07-31T15:28:19;22.40;93.70
5901;DHT22;2976;49.764;9.796;2023-07-31T15:30:44;22.10;93.70
5901;DHT22;2976;49.764;9.796;2023-07-31T15:33:10;22.20;93.90
5901;DHT22;2976;49.764;9.796;2023-07-31T15:35:36;22.20;94.20
5901;DHT22;2976;49.764;9.796;2023-07-31T15:38:01;22.10;94.20
5901;DHT22;2976;49.764;9.796;2023-07-31T15:40:27;22.10;94.00
5901;DHT22;2976;49.764;9.796;2023-07-31T15:42:53;22.10;94.50
5901;DHT22;2976;49.764;9.796;2023-07-31T15:45:18;22.10;94.40
5901;DHT22;2976;49.764;9.796;2023-07-31T15:47:44;22.10;94.30
5901;DHT22;2976;49.764;9.796;2023-07-31T15:50:10;22.00;94.60
5901;DHT22;2976;49.764;9.796;2023-07-31T15:52:35;21.90;94.80
5901;DHT22;2976;49.764;9.796;2023-07-31T15:55:02;22.00;95.00
5901;DHT22;2976;49.764;9.796;2023-07-31T15:57:27;21.80;95.20
5901;DHT22;2976;49.764;9.796;2023-07-31T15:59:53;21.80;95.20
5901;DHT22;2976;49.764;9.796;2023-07-31T16:02:18;21.60;95.50
5901;DHT22;2976;49.764;9.796;2023-07-31T16:04:44;21.40;95.60
5901;DHT22;2976;49.764;9.796;2023-07-31T16:07:10;21.30;96.20
5901;DHT22;2976;49.764;9.796;2023-07-31T16:09:37;21.20;96.50
5901;DHT22;2976;49.764;9.796;2023-07-31T16:12:02;21.10;96.20
5901;DHT22;2976;49.764;9.796;2023-07-31T16:14:28;21.00;96.70